createdAt,value
2023-05-05T00:01:22.064Z,93849.47
2023-05-05T00:06:25.554Z,93859.03
2023-05-05T00:11:28.730Z,93858.94
2023-05-05T00:16:32.567Z,93862.72
2023-05-05T00:21:36.263Z,93840.03
2023-05-05T00:26:39.814Z,93841.78
2023-05-05T00:31:43.360Z,93831.00
2023-05-05T00:36:47.393Z,93833.03
2023-05-05T00:41:51.099Z,93831.59
2023-05-05T00:46:54.256Z,93838.53
2023-05-05T00:51:58.721Z,93834.81
2023-05-05T00:57:05.091Z,93825.56
2023-05-05T01:02:09.859Z,93812.88
2023-05-05T01:07:35.347Z,93821.66
2023-05-05T01:12:54.447Z,93818.19
2023-05-05T01:18:07.172Z,93819.91
2023-05-05T01:23:19.508Z,93808.69
2023-05-05T01:28:55.552Z,93817.47
2023-05-05T01:34:06.646Z,93825.28
2023-05-05T01:39:16.490Z,93818.28
2023-05-05T01:44:20.735Z,93813.72
2023-05-05T01:49:25.124Z,93815.28
2023-05-05T01:54:30.124Z,93804.28
2023-05-05T01:59:35.418Z,93809.72
2023-05-05T02:04:42.851Z,93813.44
2023-05-05T02:09:47.416Z,93814.22
2023-05-05T02:14:53.318Z,93800.69
2023-05-05T02:19:59.226Z,93812.69
2023-05-05T02:25:02.596Z,93820.69
2023-05-05T02:30:11.311Z,93815.94
2023-05-05T02:35:18.584Z,93813.34
2023-05-05T02:40:27.150Z,93817.00
2023-05-05T02:45:32.046Z,93812.91
2023-05-05T02:50:36.578Z,93818.78
2023-05-05T02:55:57.090Z,93817.91
2023-05-05T03:01:17.270Z,93809.75
2023-05-05T03:06:23.292Z,93802.22
2023-05-05T03:11:30.039Z,93805.13
2023-05-05T03:16:37.083Z,93798.44
2023-05-05T03:21:44.615Z,93802.56
2023-05-05T03:26:49.995Z,93799.59
2023-05-05T03:31:57.302Z,93787.06
2023-05-05T03:37:01.476Z,93786.97
2023-05-05T03:42:05.349Z,93784.97
2023-05-05T03:47:11.690Z,93795.00
2023-05-05T03:52:17.282Z,93784.44
2023-05-05T03:57:21.957Z,93797.22
2023-05-05T04:02:26.717Z,93796.34
2023-05-05T04:07:31.088Z,93803.78
2023-05-05T04:12:44.369Z,93817.56
2023-05-05T04:17:53.720Z,93813.34
2023-05-05T04:22:57.797Z,93824.47
2023-05-05T04:28:01.829Z,93811.31
2023-05-05T04:33:05.631Z,93812.47
2023-05-05T04:38:10.350Z,93822.97
2023-05-05T04:43:13.988Z,93813.56
2023-05-05T04:48:18.085Z,93818.84
2023-05-05T04:53:21.877Z,93828.72
2023-05-05T04:58:26.086Z,93805.38
2023-05-05T05:03:29.574Z,93822.63
2023-05-05T05:08:32.780Z,93822.53
2023-05-05T05:13:37.133Z,93815.38
2023-05-05T05:18:41.657Z,93822.59
2023-05-05T05:23:45.315Z,93822.31
2023-05-05T05:28:49.405Z,93829.97
2023-05-05T05:33:52.904Z,93811.63
2023-05-05T05:38:56.714Z,93830.91
2023-05-05T05:44:00.754Z,93828.50
2023-05-05T05:49:05.280Z,93828.66
2023-05-05T05:54:08.826Z,93815.59
2023-05-05T05:59:13.010Z,93826.38
2023-05-05T06:04:18.429Z,93831.94
2023-05-05T06:09:23.147Z,93842.53
2023-05-05T06:14:27.099Z,93828.09
2023-05-05T06:19:30.858Z,93827.59
2023-05-05T06:24:34.403Z,93817.94
2023-05-05T06:29:39.007Z,93818.63
2023-05-05T06:34:44.983Z,93831.66
2023-05-05T06:39:48.301Z,93823.81
2023-05-05T06:44:51.955Z,93815.81
2023-05-05T06:49:55.832Z,93819.75
2023-05-05T06:55:00.013Z,93826.63
2023-05-05T07:00:06.182Z,93825.63
2023-05-05T07:05:09.775Z,93819.13
2023-05-05T07:10:13.460Z,93827.56
2023-05-05T07:15:27.556Z,93826.50
2023-05-05T07:20:33.371Z,93829.69
2023-05-05T07:25:37.733Z,93816.13
2023-05-05T07:30:41.024Z,93826.81
2023-05-05T07:35:44.180Z,93826.53
2023-05-05T07:40:47.780Z,93815.72
2023-05-05T07:45:51.607Z,93829.78
2023-05-05T07:50:55.277Z,93840.81
2023-05-05T07:55:58.870Z,93851.84
2023-05-05T08:01:03.100Z,93841.25
2023-05-05T08:06:12.385Z,93839.84
2023-05-05T08:11:16.872Z,93850.66
2023-05-05T08:16:20.595Z,93851.59
2023-05-05T08:21:24.247Z,93850.06
2023-05-05T08:26:27.903Z,93865.41
2023-05-05T08:31:37.486Z,93875.34
2023-05-05T08:36:41.563Z,93879.44
2023-05-05T08:41:44.814Z,93876.47
2023-05-05T08:46:50.669Z,93866.38
2023-05-05T08:51:55.346Z,93878.78
2023-05-05T08:57:02.223Z,93879.59
2023-05-05T09:02:07.585Z,93878.34
2023-05-05T09:07:10.802Z,93874.41
2023-05-05T09:12:16.246Z,93882.72
2023-05-05T09:17:25.139Z,93877.66
2023-05-05T09:22:41.527Z,93887.25
2023-05-05T09:27:48.242Z,93896.69
2023-05-05T09:32:55.883Z,93885.53
2023-05-05T09:38:12.601Z,93885.81
2023-05-05T09:43:17.991Z,93889.25
2023-05-05T09:48:29.534Z,93881.13
2023-05-05T09:53:43.227Z,93886.00
2023-05-05T09:58:46.753Z,93879.69
2023-05-05T10:03:53.048Z,93889.00
2023-05-05T10:09:02.834Z,93890.53
2023-05-05T10:14:08.696Z,93902.47
2023-05-05T10:19:14.895Z,93896.53
2023-05-05T10:24:51.132Z,93901.31
2023-05-05T10:30:09.066Z,93901.72
2023-05-05T10:35:17.982Z,93906.72
2023-05-05T10:40:23.024Z,93917.59
2023-05-05T10:45:27.743Z,93918.72
2023-05-05T10:50:36.898Z,93920.13
2023-05-05T10:55:48.827Z,93921.00
2023-05-05T11:00:52.153Z,93902.94
2023-05-05T11:06:05.208Z,93898.09
2023-05-05T11:11:12.878Z,93905.66
2023-05-05T11:16:46.049Z,93904.88
2023-05-05T11:22:02.595Z,93903.28
2023-05-05T11:27:07.300Z,93897.50
2023-05-05T11:32:14.937Z,93902.28
2023-05-05T11:37:18.476Z,93889.19
2023-05-05T11:42:25.080Z,93895.13
2023-05-05T11:47:30.141Z,93877.81
2023-05-05T11:52:34.811Z,93884.22
2023-05-05T11:57:38.705Z,93879.31
2023-05-05T12:02:42.589Z,93873.06
2023-05-05T12:07:45.886Z,93866.00
2023-05-05T12:12:50.117Z,93860.97
2023-05-05T12:17:53.579Z,93860.81
2023-05-05T12:23:02.519Z,93854.19
2023-05-05T12:28:07.908Z,93852.41
2023-05-05T12:33:12.080Z,93834.31
2023-05-05T12:38:16.723Z,93812.72
2023-05-05T12:43:34.495Z,93824.69
2023-05-05T12:48:40.026Z,93794.22
2023-05-05T12:53:43.981Z,93821.91
2023-05-05T12:58:52.380Z,93822.88
2023-05-05T13:04:05.850Z,93825.56
2023-05-05T13:09:12.563Z,93818.31
2023-05-05T13:14:16.716Z,93826.56
2023-05-05T13:19:19.969Z,93818.19
2023-05-05T13:24:38.189Z,93804.28
2023-05-05T13:29:49.282Z,93788.66
2023-05-05T13:34:52.640Z,93787.75
2023-05-05T13:39:59.774Z,93789.97
2023-05-05T13:45:03.373Z,93780.72
2023-05-05T13:50:08.180Z,93778.91
2023-05-05T13:55:11.383Z,93772.09
2023-05-05T14:00:15.330Z,93772.44
2023-05-05T14:05:20.356Z,93767.75
2023-05-05T14:10:23.489Z,93760.06
2023-05-05T14:15:27.115Z,93761.53
2023-05-05T14:20:31.370Z,93760.72
2023-05-05T14:25:35.228Z,93760.25
2023-05-05T14:30:38.702Z,93770.59
2023-05-05T14:35:41.919Z,93767.06
2023-05-05T14:40:45.640Z,93750.38
2023-05-05T14:45:49.804Z,93737.19
2023-05-05T14:50:53.362Z,93739.03
2023-05-05T14:55:57.226Z,93745.25
2023-05-05T15:01:00.794Z,93734.94
2023-05-05T15:06:05.282Z,93734.13
2023-05-05T15:11:08.439Z,93722.44
2023-05-05T15:16:11.668Z,93750.41
2023-05-05T15:21:14.772Z,93747.00
2023-05-05T15:26:17.805Z,93725.25
2023-05-05T15:31:20.917Z,93731.97
2023-05-05T15:36:24.893Z,93734.00
2023-05-05T15:41:29.829Z,93728.03
2023-05-05T15:46:35.700Z,93723.31
2023-05-05T15:51:38.874Z,93716.94
2023-05-05T15:56:41.881Z,93732.34
2023-05-05T16:01:44.974Z,93750.34
2023-05-05T16:06:47.990Z,93743.09
2023-05-05T16:11:53.970Z,93732.72
2023-05-05T16:16:57.163Z,93747.72
2023-05-05T16:22:00.553Z,93749.34
2023-05-05T16:27:04.057Z,93757.34
2023-05-05T16:32:07.229Z,93761.94
2023-05-05T16:37:10.209Z,93765.84
2023-05-05T16:42:13.668Z,93758.34
2023-05-05T16:47:16.674Z,93763.19
2023-05-05T16:52:19.718Z,93767.00
2023-05-05T16:57:23.497Z,93771.47
2023-05-05T17:02:26.738Z,93771.47
2023-05-05T17:07:29.955Z,93772.38
2023-05-05T17:12:35.087Z,93773.56
2023-05-05T17:17:38.790Z,93772.22
2023-05-05T17:22:42.976Z,93781.28
2023-05-05T17:27:46.068Z,93782.00
2023-05-05T17:32:49.301Z,93785.06
2023-05-05T17:37:52.356Z,93785.69
2023-05-05T17:42:55.452Z,93778.94
2023-05-05T17:47:58.720Z,93787.03
2023-05-05T17:53:01.992Z,93797.75
2023-05-05T17:58:05.177Z,93791.13
2023-05-05T18:03:08.382Z,93798.66
2023-05-05T18:08:11.487Z,93802.34
2023-05-05T18:13:14.584Z,93801.75
2023-05-05T18:18:17.905Z,93800.81
2023-05-05T18:23:21.383Z,93814.00
2023-05-05T18:28:25.361Z,93817.28
2023-05-05T18:33:29.619Z,93825.66
2023-05-05T18:38:34.180Z,93836.78
2023-05-05T18:43:38.074Z,93842.34
2023-05-05T18:48:42.080Z,93843.59
2023-05-05T18:53:45.680Z,93853.88
2023-05-05T18:58:49.389Z,93855.06
2023-05-05T19:03:52.575Z,93862.97
2023-05-05T19:08:57.286Z,93853.56
2023-05-05T19:14:01.594Z,93868.06
2023-05-05T19:19:05.448Z,93881.81
2023-05-05T19:24:09.973Z,93868.47
2023-05-05T19:29:13.685Z,93883.75
2023-05-05T19:34:17.190Z,93879.03
2023-05-05T19:39:20.880Z,93870.78
2023-05-05T19:44:25.036Z,93877.44
2023-05-05T19:49:28.661Z,93877.84
2023-05-05T19:54:32.032Z,93873.50
2023-05-05T19:59:35.705Z,93877.00
2023-05-05T20:04:39.209Z,93875.78
2023-05-05T20:09:43.291Z,93876.56
2023-05-05T20:14:47.303Z,93866.38
2023-05-05T20:19:50.916Z,93875.78
2023-05-05T20:24:55.198Z,93880.38
2023-05-05T20:29:59.184Z,93869.41
2023-05-05T20:35:03.292Z,93868.63
2023-05-05T20:40:08.098Z,93866.63
2023-05-05T20:45:12.791Z,93863.41
2023-05-05T20:50:20.626Z,93862.47
2023-05-05T20:55:24.175Z,93870.16
2023-05-05T21:00:27.737Z,93867.63
2023-05-05T21:05:31.907Z,93859.44
2023-05-05T21:10:35.064Z,93846.91
2023-05-05T21:15:38.801Z,93836.56
2023-05-05T21:20:42.782Z,93827.06
2023-05-05T21:25:46.102Z,93833.66
2023-05-05T21:35:59.804Z,93834.84
2023-05-05T21:41:04.267Z,93835.34
2023-05-05T21:46:08.523Z,93837.00
2023-05-05T21:51:12.423Z,93829.53
2023-05-05T21:56:15.977Z,93810.25
2023-05-05T22:01:19.117Z,93820.41
2023-05-05T22:06:22.924Z,93815.66
2023-05-05T22:11:26.553Z,93811.44
2023-05-05T22:16:30.478Z,93808.06
2023-05-05T22:21:34.023Z,93808.66
2023-05-05T22:26:43.321Z,93813.28
2023-05-05T22:31:46.614Z,93817.44
2023-05-05T22:36:50.720Z,93801.97
2023-05-05T22:41:54.777Z,93802.31
2023-05-05T22:46:58.931Z,93818.31
2023-05-05T22:52:02.992Z,93799.34
2023-05-05T22:57:06.108Z,93797.69
2023-05-05T23:02:09.765Z,93806.50
2023-05-05T23:07:14.405Z,93795.53
2023-05-05T23:12:17.842Z,93775.09
2023-05-05T23:17:21.514Z,93779.84
2023-05-05T23:22:25.153Z,93776.66
2023-05-05T23:27:28.683Z,93771.94
2023-05-05T23:32:32.265Z,93776.06
2023-05-05T23:37:35.573Z,93774.66
2023-05-05T23:42:39.190Z,93773.63
2023-05-05T23:47:42.727Z,93775.81
2023-05-05T23:52:46.640Z,93771.78
2023-05-05T23:57:52.485Z,93767.44
